createdAt,value
2019-02-27T00:01:10.569Z,43.90
2019-02-27T00:03:39.778Z,44.40
2019-02-27T00:06:12.887Z,45.10
2019-02-27T00:08:43.690Z,46.30
2019-02-27T00:11:14.489Z,46.70
2019-02-27T00:13:46.168Z,47.40
2019-02-27T00:16:15.828Z,47.70
2019-02-27T00:18:45.168Z,48.30
2019-02-27T00:21:14.647Z,48.90
2019-02-27T00:23:43.988Z,49.50
2019-02-27T00:26:14.170Z,50.40
2019-02-27T00:28:46.767Z,51.60
2019-02-27T00:31:15.912Z,51.60
2019-02-27T00:33:45.687Z,51.80
2019-02-27T00:36:15.449Z,52.10
2019-02-27T00:38:45.108Z,52.60
2019-02-27T00:41:14.428Z,52.50
2019-02-27T00:43:47.011Z,52.50
2019-02-27T00:46:16.688Z,52.60
2019-02-27T00:48:45.927Z,52.80
2019-02-27T00:51:15.287Z,52.80
2019-02-27T00:53:44.749Z,52.80
2019-02-27T00:56:13.848Z,52.70
2019-02-27T00:58:44.810Z,52.70
2019-02-27T01:01:14.736Z,52.60
2019-02-27T01:03:44.542Z,52.30
2019-02-27T01:06:14.624Z,52.30
2019-02-27T01:08:44.538Z,52.40
2019-02-27T01:11:18.122Z,52.30
2019-02-27T01:13:45.088Z,52.70
2019-02-27T01:16:16.968Z,52.60
2019-02-27T01:18:45.880Z,53.10
2019-02-27T01:21:18.937Z,53.20
2019-02-27T01:23:46.328Z,53.20
2019-02-27T01:26:15.909Z,53.00
2019-02-27T01:28:45.642Z,52.80
2019-02-27T01:31:15.207Z,53.30
2019-02-27T01:33:44.769Z,53.40
2019-02-27T01:36:14.507Z,52.70
2019-02-27T01:38:43.949Z,51.60
2019-02-27T01:41:13.669Z,51.70
2019-02-27T01:43:42.892Z,51.70
2019-02-27T01:46:12.335Z,51.60
2019-02-27T01:48:43.860Z,51.20
2019-02-27T01:51:13.687Z,50.80
2019-02-27T01:53:43.163Z,51.00
2019-02-27T01:56:12.708Z,50.90
2019-02-27T01:58:44.292Z,50.10
2019-02-27T02:01:12.932Z,50.30
2019-02-27T02:03:42.168Z,49.70
2019-02-27T02:06:11.497Z,49.40
2019-02-27T02:08:40.828Z,49.90
2019-02-27T02:11:10.127Z,49.80
2019-02-27T02:13:48.906Z,49.50
2019-02-27T02:16:26.828Z,49.80
2019-02-27T02:19:21.967Z,50.70
2019-02-27T02:21:57.468Z,50.80
2019-02-27T02:24:47.447Z,50.60
2019-02-27T02:27:25.411Z,50.70
2019-02-27T02:29:57.847Z,50.60
2019-02-27T02:32:59.388Z,51.10
2019-02-27T02:36:07.274Z,51.40
2019-02-27T02:38:58.009Z,50.60
2019-02-27T02:41:48.248Z,50.90
2019-02-27T02:44:26.788Z,50.60
2019-02-27T02:47:06.429Z,50.60
2019-02-27T02:49:44.161Z,50.40
2019-02-27T02:52:28.698Z,50.60
2019-02-27T02:55:16.032Z,50.90
2019-02-27T02:58:11.369Z,51.20
2019-02-27T03:01:14.079Z,50.60
2019-02-27T03:04:14.181Z,50.80
2019-02-27T03:07:00.934Z,50.60
2019-02-27T03:09:57.812Z,50.70
2019-02-27T03:12:48.151Z,50.70
2019-02-27T03:15:35.771Z,48.50
2019-02-27T03:18:30.809Z,45.80
2019-02-27T03:21:12.408Z,46.10
2019-02-27T03:26:56.408Z,46.50
2019-02-27T03:29:40.204Z,46.70
2019-02-27T03:32:12.188Z,46.70
2019-02-27T03:35:12.950Z,47.10
2019-02-27T03:37:53.328Z,46.80
2019-02-27T03:40:50.189Z,46.90
2019-02-27T03:43:33.708Z,46.50
2019-02-27T03:46:11.928Z,46.60
2019-02-27T03:49:04.689Z,46.50
2019-02-27T03:51:59.902Z,46.30
2019-02-27T03:54:35.607Z,46.30
2019-02-27T03:57:28.049Z,46.10
2019-02-27T04:00:21.306Z,45.70
2019-02-27T04:03:02.181Z,45.60
2019-02-27T04:06:00.077Z,45.70
2019-02-27T04:08:56.396Z,45.90
2019-02-27T04:11:26.404Z,45.60
2019-02-27T04:14:29.417Z,45.70
2019-02-27T04:17:05.139Z,45.20
2019-02-27T04:19:30.015Z,46.00
2019-02-27T04:22:01.286Z,45.10
2019-02-27T04:24:30.197Z,44.20
2019-02-27T04:26:59.674Z,44.90
2019-02-27T04:29:29.065Z,44.90
2019-02-27T04:32:02.656Z,44.70
2019-02-27T04:34:33.192Z,44.70
2019-02-27T04:37:03.256Z,44.80
2019-02-27T04:39:32.294Z,44.50
2019-02-27T04:42:01.372Z,44.80
2019-02-27T04:44:30.588Z,44.90
2019-02-27T04:47:01.268Z,45.30
2019-02-27T04:49:30.491Z,45.70
2019-02-27T04:51:59.767Z,45.80
2019-02-27T04:54:29.287Z,47.40
2019-02-27T04:56:58.916Z,47.60
2019-02-27T04:59:28.090Z,49.20
2019-02-27T05:01:57.673Z,49.50
2019-02-27T05:04:27.040Z,48.70
2019-02-27T05:06:56.600Z,48.20
2019-02-27T05:09:26.357Z,47.20
2019-02-27T05:11:55.933Z,48.20
2019-02-27T05:14:27.467Z,46.90
2019-02-27T05:16:56.733Z,48.80
2019-02-27T05:19:26.314Z,49.00
2019-02-27T05:21:55.415Z,49.50
2019-02-27T05:24:24.774Z,50.60
2019-02-27T05:26:54.396Z,51.50
2019-02-27T05:29:23.689Z,52.00
2019-02-27T05:31:54.647Z,50.90
2019-02-27T05:34:24.128Z,51.20
2019-02-27T05:36:53.508Z,51.60
2019-02-27T05:39:26.167Z,52.70
2019-02-27T05:41:55.533Z,52.60
2019-02-27T05:44:24.952Z,53.30
2019-02-27T05:46:54.808Z,53.90
2019-02-27T05:49:26.644Z,54.70
2019-02-27T05:51:55.287Z,55.80
2019-02-27T05:54:24.730Z,56.40
2019-02-27T05:56:54.110Z,55.80
2019-02-27T05:59:36.047Z,56.00
2019-02-27T06:02:05.596Z,56.20
2019-02-27T06:04:34.598Z,56.10
2019-02-27T06:07:08.457Z,55.60
2019-02-27T06:09:41.421Z,54.90
2019-02-27T06:12:15.448Z,54.10
2019-02-27T06:14:47.407Z,52.90
2019-02-27T06:17:16.567Z,50.60
2019-02-27T06:19:45.687Z,47.40
2019-02-27T06:22:14.688Z,45.60
2019-02-27T06:24:45.736Z,44.90
2019-02-27T06:27:14.856Z,43.20
2019-02-27T06:29:45.703Z,43.10
2019-02-27T06:32:14.726Z,40.90
2019-02-27T06:34:44.408Z,39.20
2019-02-27T06:37:15.511Z,37.40
2019-02-27T06:39:44.667Z,37.80
2019-02-27T06:42:14.201Z,38.60
2019-02-27T06:44:43.478Z,36.70
2019-02-27T06:47:12.676Z,36.00
2019-02-27T06:49:42.389Z,35.40
2019-02-27T06:52:13.269Z,35.20
2019-02-27T06:54:42.747Z,52.50
2019-02-27T06:57:11.968Z,36.80
2019-02-27T06:59:41.336Z,38.10
2019-02-27T07:02:10.694Z,38.00
2019-02-27T07:07:09.873Z,31.90
2019-02-27T07:09:39.292Z,31.80
2019-02-27T07:12:08.739Z,33.20
2019-02-27T07:14:39.101Z,31.70
2019-02-27T07:17:12.692Z,33.10
2019-02-27T07:19:42.088Z,35.30
2019-02-27T07:22:12.673Z,36.40
2019-02-27T07:24:42.749Z,38.00
2019-02-27T07:27:11.867Z,38.70
2019-02-27T07:29:42.947Z,39.00
2019-02-27T07:32:12.180Z,37.50
2019-02-27T07:34:41.587Z,36.10
2019-02-27T07:37:12.933Z,35.90
2019-02-27T07:39:41.548Z,36.20
2019-02-27T07:42:10.745Z,36.80
2019-02-27T07:44:42.190Z,35.40
2019-02-27T07:47:12.389Z,34.70
2019-02-27T07:49:41.582Z,36.80
2019-02-27T07:52:12.275Z,33.70
2019-02-27T07:54:41.367Z,32.80
2019-02-27T07:57:10.507Z,33.60
2019-02-27T07:59:39.768Z,34.80
2019-02-27T08:02:08.934Z,37.10
2019-02-27T08:04:38.313Z,38.90
2019-02-27T08:07:12.359Z,40.40
2019-02-27T08:09:40.993Z,43.20
2019-02-27T08:12:10.095Z,43.10
2019-02-27T08:14:39.494Z,44.10
2019-02-27T08:17:17.399Z,45.20
2019-02-27T08:19:42.835Z,47.20
2019-02-27T08:22:15.775Z,47.30
2019-02-27T08:24:44.887Z,47.80
2019-02-27T08:27:15.947Z,48.40
2019-02-27T08:29:45.008Z,49.30
2019-02-27T08:32:16.447Z,49.80
2019-02-27T08:34:45.947Z,50.60
2019-02-27T08:37:15.535Z,50.50
2019-02-27T08:39:45.068Z,50.60
2019-02-27T08:42:16.170Z,50.80
2019-02-27T08:44:45.799Z,50.90
2019-02-27T08:47:16.100Z,52.10
2019-02-27T08:49:45.473Z,51.20
2019-02-27T08:52:18.028Z,51.60
2019-02-27T08:54:47.271Z,52.50
2019-02-27T08:57:16.588Z,52.80
2019-02-27T08:59:45.847Z,53.30
2019-02-27T09:02:16.388Z,53.50
2019-02-27T09:04:46.127Z,53.00
2019-02-27T09:07:15.387Z,52.70
2019-02-27T09:09:51.202Z,54.10
2019-02-27T09:12:16.788Z,53.00
2019-02-27T09:14:45.996Z,52.90
2019-02-27T09:17:15.250Z,54.90
2019-02-27T09:19:45.672Z,53.80
2019-02-27T09:22:15.348Z,54.10
2019-02-27T09:24:46.807Z,54.00
2019-02-27T09:27:19.226Z,55.20
2019-02-27T09:29:49.387Z,54.70
2019-02-27T09:32:20.410Z,53.40
2019-02-27T09:34:49.669Z,53.60
2019-02-27T09:37:34.287Z,53.60
2019-02-27T09:40:05.714Z,53.40
2019-02-27T09:42:36.526Z,54.50
2019-02-27T09:45:08.260Z,54.30
2019-02-27T09:47:38.404Z,53.90
2019-02-27T09:50:08.089Z,53.80
2019-02-27T09:52:37.210Z,54.30
2019-02-27T09:55:07.289Z,54.00
2019-02-27T09:57:36.775Z,54.60
2019-02-27T10:00:28.858Z,54.60
2019-02-27T10:02:58.303Z,54.50
2019-02-27T10:05:30.711Z,54.50
2019-02-27T10:07:59.879Z,54.40
2019-02-27T10:10:32.272Z,53.10
2019-02-27T10:13:03.346Z,53.10
2019-02-27T10:15:34.327Z,54.10
2019-02-27T10:18:13.003Z,53.80
2019-02-27T10:20:42.227Z,54.20
2019-02-27T10:23:14.468Z,53.40
2019-02-27T10:25:44.104Z,53.10
2019-02-27T10:28:13.529Z,54.50
2019-02-27T10:30:42.588Z,54.20
2019-02-27T10:33:11.921Z,53.80
2019-02-27T10:35:41.522Z,52.70
2019-02-27T10:38:10.485Z,54.00
2019-02-27T10:40:41.514Z,52.60
2019-02-27T10:43:10.832Z,52.70
2019-02-27T10:45:39.916Z,53.70
2019-02-27T10:48:09.346Z,53.30
2019-02-27T10:50:38.592Z,52.50
2019-02-27T10:53:07.795Z,52.80
2019-02-27T10:55:37.053Z,52.50
2019-02-27T10:58:07.677Z,53.60
2019-02-27T11:00:37.179Z,52.50
2019-02-27T11:03:06.384Z,52.40
2019-02-27T11:05:37.821Z,52.10
2019-02-27T11:08:07.080Z,51.50
2019-02-27T11:10:36.281Z,51.50
2019-02-27T11:13:06.662Z,53.50
2019-02-27T11:15:41.166Z,50.90
2019-02-27T11:18:07.682Z,50.20
2019-02-27T11:20:37.001Z,50.40
2019-02-27T11:23:07.588Z,49.60
2019-02-27T11:25:39.497Z,50.50
2019-02-27T11:28:11.793Z,50.30
2019-02-27T11:30:43.361Z,50.20
2019-02-27T11:33:25.550Z,51.60
2019-02-27T11:35:47.412Z,50.10
2019-02-27T11:38:16.420Z,50.00
2019-02-27T11:40:45.458Z,49.70
2019-02-27T11:43:17.274Z,50.30
2019-02-27T11:45:46.754Z,50.40
2019-02-27T11:48:17.435Z,49.50
2019-02-27T11:50:48.235Z,50.60
2019-02-27T11:53:17.472Z,49.90
2019-02-27T11:55:48.095Z,49.30
2019-02-27T11:58:17.293Z,50.20
2019-02-27T12:00:46.313Z,48.70
2019-02-27T12:03:15.504Z,49.40
2019-02-27T12:05:44.733Z,50.30
2019-02-27T12:08:14.112Z,49.80
2019-02-27T12:10:46.171Z,48.90
2019-02-27T12:13:15.618Z,48.80
2019-02-27T12:15:44.618Z,48.60
2019-02-27T12:18:14.158Z,49.60
2019-02-27T12:20:55.847Z,48.30
2019-02-27T12:23:25.315Z,47.70
2019-02-27T12:25:56.107Z,47.90
2019-02-27T12:28:25.729Z,48.70
2019-02-27T12:30:54.894Z,48.20
2019-02-27T12:33:24.217Z,47.60
2019-02-27T12:35:56.421Z,47.10
2019-02-27T12:38:26.001Z,47.60
2019-02-27T12:40:58.431Z,47.70
2019-02-27T12:43:31.501Z,46.40
2019-02-27T12:46:01.635Z,47.60
2019-02-27T12:48:31.233Z,47.30
2019-02-27T12:51:03.689Z,46.90
2019-02-27T12:53:31.850Z,46.00
2019-02-27T12:56:01.082Z,46.80
2019-02-27T12:58:33.924Z,47.10
2019-02-27T13:01:03.379Z,46.00
2019-02-27T13:03:32.639Z,46.70
2019-02-27T13:06:02.174Z,45.80
2019-02-27T13:08:31.616Z,44.80
2019-02-27T13:11:01.098Z,44.60
2019-02-27T13:13:30.537Z,45.50
2019-02-27T13:16:00.181Z,45.20
2019-02-27T13:18:32.040Z,45.50
2019-02-27T13:21:01.484Z,46.80
2019-02-27T13:23:36.376Z,46.90
2019-02-27T13:26:05.008Z,47.40
2019-02-27T13:28:40.138Z,46.90
2019-02-27T13:31:09.922Z,45.80
2019-02-27T13:33:39.263Z,46.30
2019-02-27T13:36:09.051Z,45.90
2019-02-27T13:38:45.342Z,45.80
2019-02-27T13:41:15.576Z,45.10
2019-02-27T13:43:48.358Z,45.60
2019-02-27T13:46:20.134Z,46.40
2019-02-27T13:49:13.784Z,46.50
2019-02-27T13:51:42.147Z,45.80
2019-02-27T13:54:11.826Z,46.60
2019-02-27T13:56:42.001Z,45.70
2019-02-27T13:59:11.786Z,45.40
2019-02-27T14:01:41.268Z,45.70
2019-02-27T14:04:10.909Z,45.90
2019-02-27T14:06:43.386Z,45.20
2019-02-27T14:09:14.590Z,45.50
2019-02-27T14:11:43.827Z,45.40
2019-02-27T14:14:15.145Z,45.80
2019-02-27T14:16:43.862Z,44.60
2019-02-27T14:19:15.993Z,44.60
2019-02-27T14:21:45.046Z,45.10
2019-02-27T14:24:14.442Z,44.80
2019-02-27T14:26:43.722Z,43.60
2019-02-27T14:29:14.643Z,44.50
2019-02-27T14:31:44.190Z,44.40
2019-02-27T14:34:13.483Z,44.40
2019-02-27T14:36:43.112Z,43.90
2019-02-27T14:39:14.692Z,44.20
2019-02-27T14:41:47.908Z,43.50
2019-02-27T14:44:14.985Z,43.20
2019-02-27T14:46:47.354Z,43.70
2019-02-27T14:49:16.669Z,43.30
2019-02-27T14:51:49.868Z,43.20
2019-02-27T14:54:19.614Z,42.30
2019-02-27T14:56:49.539Z,42.20
2019-02-27T14:59:19.405Z,42.10
2019-02-27T15:01:49.425Z,42.90
2019-02-27T15:04:18.875Z,42.40
2019-02-27T15:06:50.342Z,43.20
2019-02-27T15:09:26.172Z,42.50
2019-02-27T15:11:57.063Z,42.80
2019-02-27T15:14:31.075Z,42.20
2019-02-27T15:17:00.849Z,42.50
2019-02-27T15:19:30.725Z,43.20
2019-02-27T15:22:00.350Z,42.60
2019-02-27T15:24:31.960Z,42.00
2019-02-27T15:27:00.997Z,42.00
2019-02-27T15:29:42.681Z,41.40
2019-02-27T15:32:11.853Z,41.80
2019-02-27T15:34:48.641Z,42.20
2019-02-27T15:37:18.932Z,42.00
2019-02-27T15:39:48.220Z,41.20
2019-02-27T15:42:17.933Z,42.00
2019-02-27T15:44:47.413Z,41.90
2019-02-27T15:47:17.095Z,42.40
2019-02-27T15:49:48.759Z,42.80
2019-02-27T15:52:17.435Z,41.80
2019-02-27T15:54:46.870Z,41.70
2019-02-27T15:57:19.169Z,41.60
2019-02-27T15:59:48.892Z,41.60
2019-02-27T16:02:18.671Z,41.70
2019-02-27T16:04:47.819Z,41.80
2019-02-27T16:07:17.213Z,42.20
2019-02-27T16:09:50.573Z,42.80
2019-02-27T16:12:19.979Z,43.00
2019-02-27T16:14:49.516Z,43.30
2019-02-27T16:17:21.712Z,43.60
2019-02-27T16:19:51.021Z,44.20
2019-02-27T16:22:20.437Z,44.30
2019-02-27T16:24:49.551Z,44.50
2019-02-27T16:27:18.579Z,45.00
2019-02-27T16:29:47.909Z,45.00
2019-02-27T16:32:17.370Z,45.10
2019-02-27T16:34:47.988Z,45.30
2019-02-27T16:37:22.798Z,45.50
2019-02-27T16:39:49.573Z,45.70
2019-02-27T16:42:18.750Z,45.90
2019-02-27T16:44:48.053Z,46.30
2019-02-27T16:47:19.926Z,46.60
2019-02-27T16:49:50.407Z,46.60
2019-02-27T16:52:19.291Z,47.00
2019-02-27T16:54:50.665Z,47.70
2019-02-27T16:57:24.150Z,47.50
2019-02-27T16:59:51.035Z,47.90
2019-02-27T17:02:20.256Z,47.70
2019-02-27T17:04:49.395Z,47.80
2019-02-27T17:07:18.836Z,48.10
2019-02-27T17:09:50.546Z,48.50
2019-02-27T17:12:26.909Z,48.50
2019-02-27T17:15:01.113Z,48.60
2019-02-27T17:17:37.339Z,48.80
2019-02-27T17:20:12.525Z,48.60
2019-02-27T17:22:45.418Z,48.90
2019-02-27T17:25:15.376Z,49.10
2019-02-27T17:27:49.947Z,49.60
2019-02-27T17:30:37.761Z,49.60
2019-02-27T17:33:05.460Z,49.50
2019-02-27T17:35:38.114Z,49.50
2019-02-27T17:38:07.450Z,49.60
2019-02-27T17:40:37.812Z,49.80
2019-02-27T17:43:08.718Z,50.00
2019-02-27T17:45:37.835Z,50.00
2019-02-27T17:48:09.249Z,50.00
2019-02-27T17:50:38.175Z,50.00
2019-02-27T17:53:07.692Z,49.90
2019-02-27T17:55:42.551Z,50.00
2019-02-27T17:58:12.057Z,49.90
2019-02-27T18:01:04.674Z,50.00
2019-02-27T18:03:36.620Z,50.20
2019-02-27T18:06:05.612Z,50.40
2019-02-27T18:08:34.833Z,50.40
2019-02-27T18:11:04.341Z,51.50
2019-02-27T18:13:36.134Z,50.80
2019-02-27T18:16:04.652Z,50.90
2019-02-27T18:18:33.849Z,50.60
2019-02-27T18:21:03.134Z,50.70
2019-02-27T18:23:32.171Z,51.00
2019-02-27T18:26:01.692Z,51.10
2019-02-27T18:28:33.076Z,51.10
2019-02-27T18:31:01.754Z,51.10
2019-02-27T18:33:39.134Z,51.20
2019-02-27T18:36:08.467Z,51.20
2019-02-27T18:38:37.518Z,51.10
2019-02-27T18:41:08.798Z,50.90
2019-02-27T18:43:37.927Z,50.90
2019-02-27T18:46:07.340Z,50.90
2019-02-27T18:48:43.537Z,51.40
2019-02-27T18:51:09.559Z,51.20
2019-02-27T18:53:38.800Z,51.00
2019-02-27T18:56:08.638Z,52.00
2019-02-27T18:58:38.151Z,52.30
2019-02-27T19:01:09.858Z,52.10
2019-02-27T19:06:34.469Z,52.10
2019-02-27T19:09:05.049Z,52.10
2019-02-27T19:11:34.208Z,52.30
2019-02-27T19:16:38.555Z,52.70
2019-02-27T19:19:09.635Z,52.70
2019-02-27T19:21:38.978Z,52.70
2019-02-27T19:24:14.455Z,52.80
2019-02-27T19:26:45.872Z,52.80
2019-02-27T19:29:15.992Z,52.70
2019-02-27T19:31:48.286Z,52.60
2019-02-27T19:34:16.377Z,52.60
2019-02-27T19:36:45.747Z,52.70
2019-02-27T19:39:14.975Z,52.50
2019-02-27T19:41:45.635Z,52.40
2019-02-27T19:44:14.995Z,53.10
2019-02-27T19:46:47.481Z,53.00
2019-02-27T19:49:15.648Z,53.30
2019-02-27T19:51:45.182Z,53.30
2019-02-27T19:54:14.868Z,53.80
2019-02-27T19:56:45.211Z,53.30
2019-02-27T19:59:14.713Z,53.60
2019-02-27T20:01:49.135Z,53.80
2019-02-27T20:04:17.589Z,53.80
2019-02-27T20:06:47.409Z,53.90
2019-02-27T20:09:20.092Z,54.00
2019-02-27T20:11:49.208Z,54.00
2019-02-27T20:14:20.482Z,53.80
2019-02-27T20:16:54.970Z,53.70
2019-02-27T20:19:22.574Z,53.30
2019-02-27T20:21:52.349Z,53.50
2019-02-27T20:24:32.453Z,53.70
2019-02-27T20:27:01.955Z,54.20
2019-02-27T20:29:39.478Z,54.40
2019-02-27T20:32:10.254Z,54.40
2019-02-27T20:34:39.458Z,54.60
2019-02-27T20:37:08.916Z,54.60
2019-02-27T20:39:38.030Z,54.60
2019-02-27T20:42:07.142Z,54.50
2019-02-27T20:44:37.492Z,54.60
2019-02-27T20:47:07.293Z,55.60
2019-02-27T20:49:36.721Z,56.10
2019-02-27T20:52:06.154Z,56.30
2019-02-27T20:54:35.643Z,56.50
2019-02-27T20:57:08.164Z,56.30
2019-02-27T20:59:36.094Z,55.90
2019-02-27T21:02:08.414Z,56.20
2019-02-27T21:04:39.156Z,56.60
2019-02-27T21:07:08.542Z,56.20
2019-02-27T21:09:37.832Z,56.20
2019-02-27T21:12:08.720Z,56.30
2019-02-27T21:14:38.073Z,56.40
2019-02-27T21:17:09.853Z,56.60
2019-02-27T21:19:38.913Z,56.60
2019-02-27T21:22:09.790Z,56.60
2019-02-27T21:24:40.487Z,56.80
2019-02-27T21:27:11.104Z,56.80
2019-02-27T21:29:43.365Z,56.90
2019-02-27T21:32:11.289Z,56.80
2019-02-27T21:34:40.667Z,57.10
2019-02-27T21:37:24.229Z,57.20
2019-02-27T21:39:53.907Z,57.40
2019-02-27T21:42:23.068Z,57.80
2019-02-27T21:44:52.893Z,58.20
2019-02-27T21:47:22.231Z,58.60
2019-02-27T21:49:53.290Z,58.70
2019-02-27T21:52:22.708Z,58.90
2019-02-27T21:54:51.868Z,58.80
2019-02-27T21:57:22.897Z,58.80
2019-02-27T21:59:53.048Z,58.60
2019-02-27T22:02:24.053Z,58.60
2019-02-27T22:04:55.005Z,58.90
2019-02-27T22:07:24.332Z,58.70
2019-02-27T22:09:54.230Z,58.30
2019-02-27T22:12:23.752Z,59.80
2019-02-27T22:14:54.892Z,60.30
2019-02-27T22:17:24.107Z,59.40
2019-02-27T22:19:54.652Z,59.20
2019-02-27T22:22:24.729Z,60.80
2019-02-27T22:24:55.529Z,61.80
2019-02-27T22:27:24.887Z,62.00
2019-02-27T22:29:55.851Z,61.00
2019-02-27T22:32:25.247Z,59.70
2019-02-27T22:34:54.228Z,59.00
2019-02-27T22:37:23.427Z,58.90
2019-02-27T22:39:53.206Z,58.90
2019-02-27T22:42:22.428Z,58.80
2019-02-27T22:44:51.576Z,59.30
2019-02-27T22:47:21.653Z,61.20
2019-02-27T22:49:51.787Z,61.10
2019-02-27T22:52:20.955Z,61.90
2019-02-27T22:54:50.449Z,60.60
2019-02-27T22:57:29.047Z,60.70
2019-02-27T22:59:58.168Z,61.10
2019-02-27T23:02:27.918Z,60.70
2019-02-27T23:04:57.377Z,61.70
2019-02-27T23:07:26.830Z,62.00
2019-02-27T23:09:57.528Z,62.80
2019-02-27T23:12:27.607Z,63.70
2019-02-27T23:14:56.848Z,62.90
2019-02-27T23:17:26.667Z,62.70
2019-02-27T23:20:00.336Z,62.80
2019-02-27T23:22:29.695Z,61.80
2019-02-27T23:24:59.207Z,60.30
2019-02-27T23:27:28.230Z,59.40
2019-02-27T23:30:01.048Z,58.00
2019-02-27T23:32:30.475Z,57.60
2019-02-27T23:35:01.528Z,58.00
2019-02-27T23:37:30.742Z,58.60
2019-02-27T23:40:00.407Z,59.50
2019-02-27T23:42:35.988Z,60.80
2019-02-27T23:45:10.262Z,61.90
2019-02-27T23:47:39.930Z,63.50
2019-02-27T23:50:12.133Z,63.70
2019-02-27T23:52:41.367Z,64.80
2019-02-27T23:55:10.937Z,64.00
2019-02-27T23:57:42.167Z,63.30
